sensor_id;sensor_type;location;lat;lon;timestamp;P1;durP1;ratioP1;P2;durP2;ratioP2
85691;SDS011;76122;47.806;18.914;2024-01-30T00:01:13;24.83;;;12.90;;
85691;SDS011;76122;47.806;18.914;2024-01-30T00:03:38;28.23;;;13.93;;
85691;SDS011;76122;47.806;18.914;2024-01-30T00:06:04;25.37;;;13.30;;
85691;SDS011;76122;47.806;18.914;2024-01-30T00:08:29;27.53;;;14.33;;
85691;SDS011;76122;47.806;18.914;2024-01-30T00:10:55;29.67;;;14.70;;
85691;SDS011;76122;47.806;18.914;2024-01-30T00:13:20;28.58;;;13.73;;
85691;SDS011;76122;47.806;18.914;2024-01-30T00:15:45;25.42;;;13.55;;
85691;SDS011;76122;47.806;18.914;2024-01-30T00:18:11;23.97;;;13.27;;
85691;SDS011;76122;47.806;18.914;2024-01-30T00:20:36;24.83;;;13.03;;
85691;SDS011;76122;47.806;18.914;2024-01-30T00:23:02;26.43;;;13.53;;
85691;SDS011;76122;47.806;18.914;2024-01-30T00:25:27;23.48;;;12.98;;
85691;SDS011;76122;47.806;18.914;2024-01-30T00:27:53;27.53;;;13.67;;
85691;SDS011;76122;47.806;18.914;2024-01-30T00:30:19;26.10;;;14.30;;
85691;SDS011;76122;47.806;18.914;2024-01-30T00:32:45;27.10;;;14.85;;
85691;SDS011;76122;47.806;18.914;2024-01-30T00:35:10;31.03;;;16.10;;
85691;SDS011;76122;47.806;18.914;2024-01-30T00:37:36;30.33;;;15.87;;
85691;SDS011;76122;47.806;18.914;2024-01-30T00:40:02;28.37;;;14.67;;
85691;SDS011;76122;47.806;18.914;2024-01-30T00:42:27;29.45;;;14.45;;
85691;SDS011;76122;47.806;18.914;2024-01-30T00:44:53;27.73;;;14.97;;
85691;SDS011;76122;47.806;18.914;2024-01-30T00:47:18;27.80;;;14.37;;
85691;SDS011;76122;47.806;18.914;2024-01-30T00:49:43;26.77;;;14.20;;
85691;SDS011;76122;47.806;18.914;2024-01-30T00:52:09;31.13;;;13.70;;
85691;SDS011;76122;47.806;18.914;2024-01-30T00:54:34;26.90;;;14.63;;
85691;SDS011;76122;47.806;18.914;2024-01-30T00:56:59;29.05;;;14.52;;
85691;SDS011;76122;47.806;18.914;2024-01-30T00:59:25;33.03;;;14.90;;
85691;SDS011;76122;47.806;18.914;2024-01-30T01:01:50;26.23;;;14.33;;
85691;SDS011;76122;47.806;18.914;2024-01-30T01:04:16;27.67;;;14.00;;
85691;SDS011;76122;47.806;18.914;2024-01-30T01:06:42;28.40;;;14.10;;
85691;SDS011;76122;47.806;18.914;2024-01-30T01:09:09;29.52;;;14.35;;
85691;SDS011;76122;47.806;18.914;2024-01-30T01:11:36;23.30;;;13.20;;
85691;SDS011;76122;47.806;18.914;2024-01-30T01:14:02;31.55;;;14.87;;
85691;SDS011;76122;47.806;18.914;2024-01-30T01:16:28;26.47;;;14.57;;
85691;SDS011;76122;47.806;18.914;2024-01-30T01:18:53;32.67;;;15.67;;
85691;SDS011;76122;47.806;18.914;2024-01-30T01:21:19;30.57;;;15.47;;
85691;SDS011;76122;47.806;18.914;2024-01-30T01:23:44;27.95;;;14.40;;
85691;SDS011;76122;47.806;18.914;2024-01-30T01:26:09;29.12;;;13.32;;
85691;SDS011;76122;47.806;18.914;2024-01-30T01:28:35;25.73;;;13.90;;
85691;SDS011;76122;47.806;18.914;2024-01-30T01:31:00;28.73;;;14.57;;
85691;SDS011;76122;47.806;18.914;2024-01-30T01:33:30;29.73;;;13.68;;
85691;SDS011;76122;47.806;18.914;2024-01-30T01:35:57;26.43;;;13.60;;
85691;SDS011;76122;47.806;18.914;2024-01-30T01:38:23;27.67;;;12.75;;
85691;SDS011;76122;47.806;18.914;2024-01-30T01:40:48;33.27;;;14.43;;
85691;SDS011;76122;47.806;18.914;2024-01-30T01:43:14;25.73;;;13.10;;
85691;SDS011;76122;47.806;18.914;2024-01-30T01:45:39;25.93;;;13.30;;
85691;SDS011;76122;47.806;18.914;2024-01-30T01:48:05;26.30;;;13.07;;
85691;SDS011;76122;47.806;18.914;2024-01-30T01:50:30;30.75;;;14.85;;
85691;SDS011;76122;47.806;18.914;2024-01-30T01:52:56;31.40;;;14.87;;
85691;SDS011;76122;47.806;18.914;2024-01-30T01:55:21;33.60;;;15.50;;
85691;SDS011;76122;47.806;18.914;2024-01-30T01:57:49;35.55;;;15.98;;
85691;SDS011;76122;47.806;18.914;2024-01-30T02:00:15;34.40;;;16.48;;
85691;SDS011;76122;47.806;18.914;2024-01-30T02:02:41;36.38;;;16.40;;
85691;SDS011;76122;47.806;18.914;2024-01-30T02:05:06;31.23;;;15.20;;
85691;SDS011;76122;47.806;18.914;2024-01-30T02:07:32;34.42;;;15.52;;
85691;SDS011;76122;47.806;18.914;2024-01-30T02:09:58;29.00;;;13.90;;
85691;SDS011;76122;47.806;18.914;2024-01-30T02:12:23;30.30;;;14.60;;
85691;SDS011;76122;47.806;18.914;2024-01-30T02:14:49;29.33;;;15.13;;
85691;SDS011;76122;47.806;18.914;2024-01-30T02:17:15;33.22;;;14.65;;
85691;SDS011;76122;47.806;18.914;2024-01-30T02:19:41;32.13;;;15.15;;
85691;SDS011;76122;47.806;18.914;2024-01-30T02:22:06;28.53;;;15.07;;
85691;SDS011;76122;47.806;18.914;2024-01-30T02:24:32;25.73;;;14.20;;
85691;SDS011;76122;47.806;18.914;2024-01-30T02:26:58;28.00;;;14.17;;
85691;SDS011;76122;47.806;18.914;2024-01-30T02:29:23;26.53;;;13.53;;
85691;SDS011;76122;47.806;18.914;2024-01-30T02:31:49;28.50;;;13.67;;
85691;SDS011;76122;47.806;18.914;2024-01-30T02:34:14;30.55;;;14.48;;
85691;SDS011;76122;47.806;18.914;2024-01-30T02:36:43;25.90;;;12.93;;
85691;SDS011;76122;47.806;18.914;2024-01-30T02:39:09;26.85;;;12.88;;
85691;SDS011;76122;47.806;18.914;2024-01-30T02:41:34;25.17;;;12.43;;
85691;SDS011;76122;47.806;18.914;2024-01-30T02:44:00;23.58;;;13.25;;
85691;SDS011;76122;47.806;18.914;2024-01-30T02:46:25;26.60;;;12.13;;
85691;SDS011;76122;47.806;18.914;2024-01-30T02:48:51;23.37;;;12.10;;
85691;SDS011;76122;47.806;18.914;2024-01-30T02:51:16;25.17;;;11.83;;
85691;SDS011;76122;47.806;18.914;2024-01-30T02:53:42;28.73;;;13.23;;
85691;SDS011;76122;47.806;18.914;2024-01-30T02:56:07;24.98;;;12.37;;
85691;SDS011;76122;47.806;18.914;2024-01-30T02:58:35;27.13;;;13.20;;
85691;SDS011;76122;47.806;18.914;2024-01-30T03:01:03;27.02;;;13.90;;
85691;SDS011;76122;47.806;18.914;2024-01-30T03:03:28;25.00;;;12.60;;
85691;SDS011;76122;47.806;18.914;2024-01-30T03:05:54;24.60;;;12.63;;
85691;SDS011;76122;47.806;18.914;2024-01-30T03:08:19;26.60;;;13.10;;
85691;SDS011;76122;47.806;18.914;2024-01-30T03:10:45;25.47;;;12.23;;
85691;SDS011;76122;47.806;18.914;2024-01-30T03:13:10;23.50;;;13.17;;
85691;SDS011;76122;47.806;18.914;2024-01-30T03:15:35;25.95;;;12.32;;
85691;SDS011;76122;47.806;18.914;2024-01-30T03:18:01;27.23;;;12.47;;
85691;SDS011;76122;47.806;18.914;2024-01-30T03:20:28;26.67;;;12.73;;
85691;SDS011;76122;47.806;18.914;2024-01-30T03:22:55;24.60;;;13.30;;
85691;SDS011;76122;47.806;18.914;2024-01-30T03:25:20;23.65;;;11.82;;
85691;SDS011;76122;47.806;18.914;2024-01-30T03:27:46;25.37;;;12.40;;
85691;SDS011;76122;47.806;18.914;2024-01-30T03:30:11;25.30;;;12.57;;
85691;SDS011;76122;47.806;18.914;2024-01-30T03:32:37;22.67;;;12.30;;
85691;SDS011;76122;47.806;18.914;2024-01-30T03:35:02;31.83;;;13.87;;
85691;SDS011;76122;47.806;18.914;2024-01-30T03:37:28;33.40;;;16.08;;
85691;SDS011;76122;47.806;18.914;2024-01-30T03:39:53;32.07;;;16.53;;
85691;SDS011;76122;47.806;18.914;2024-01-30T03:42:19;32.30;;;16.67;;
85691;SDS011;76122;47.806;18.914;2024-01-30T03:44:44;33.20;;;16.53;;
85691;SDS011;76122;47.806;18.914;2024-01-30T03:47:09;32.33;;;17.60;;
85691;SDS011;76122;47.806;18.914;2024-01-30T03:49:35;34.53;;;17.90;;
85691;SDS011;76122;47.806;18.914;2024-01-30T03:52:00;33.47;;;17.37;;
85691;SDS011;76122;47.806;18.914;2024-01-30T03:54:26;35.10;;;18.67;;
85691;SDS011;76122;47.806;18.914;2024-01-30T03:56:51;37.60;;;18.57;;
85691;SDS011;76122;47.806;18.914;2024-01-30T03:59:16;33.43;;;17.20;;
85691;SDS011;76122;47.806;18.914;2024-01-30T04:01:47;35.60;;;16.40;;
85691;SDS011;76122;47.806;18.914;2024-01-30T04:04:12;33.00;;;15.77;;
85691;SDS011;76122;47.806;18.914;2024-01-30T04:06:38;31.03;;;15.30;;
85691;SDS011;76122;47.806;18.914;2024-01-30T04:09:03;30.33;;;15.95;;
85691;SDS011;76122;47.806;18.914;2024-01-30T04:11:28;31.47;;;14.90;;
85691;SDS011;76122;47.806;18.914;2024-01-30T04:13:54;34.63;;;16.10;;
85691;SDS011;76122;47.806;18.914;2024-01-30T04:16:20;31.20;;;14.23;;
85691;SDS011;76122;47.806;18.914;2024-01-30T04:18:48;27.02;;;13.85;;
85691;SDS011;76122;47.806;18.914;2024-01-30T04:21:14;24.60;;;13.17;;
85691;SDS011;76122;47.806;18.914;2024-01-30T04:23:40;27.57;;;12.93;;
85691;SDS011;76122;47.806;18.914;2024-01-30T04:26:06;23.87;;;12.35;;
85691;SDS011;76122;47.806;18.914;2024-01-30T04:28:31;25.23;;;12.70;;
85691;SDS011;76122;47.806;18.914;2024-01-30T04:30:57;29.73;;;14.23;;
85691;SDS011;76122;47.806;18.914;2024-01-30T04:33:22;31.17;;;13.53;;
85691;SDS011;76122;47.806;18.914;2024-01-30T04:35:48;31.37;;;14.17;;
85691;SDS011;76122;47.806;18.914;2024-01-30T04:38:13;33.03;;;16.13;;
85691;SDS011;76122;47.806;18.914;2024-01-30T04:40:39;34.88;;;15.85;;
85691;SDS011;76122;47.806;18.914;2024-01-30T04:43:05;32.67;;;16.40;;
85691;SDS011;76122;47.806;18.914;2024-01-30T04:45:30;29.33;;;15.53;;
85691;SDS011;76122;47.806;18.914;2024-01-30T04:47:56;29.67;;;14.80;;
85691;SDS011;76122;47.806;18.914;2024-01-30T04:50:21;32.13;;;15.00;;
85691;SDS011;76122;47.806;18.914;2024-01-30T04:52:47;34.30;;;16.10;;
85691;SDS011;76122;47.806;18.914;2024-01-30T04:55:12;27.53;;;15.27;;
85691;SDS011;76122;47.806;18.914;2024-01-30T04:57:37;30.12;;;15.43;;
85691;SDS011;76122;47.806;18.914;2024-01-30T05:00:03;31.10;;;16.83;;
85691;SDS011;76122;47.806;18.914;2024-01-30T05:02:30;27.73;;;15.07;;
85691;SDS011;76122;47.806;18.914;2024-01-30T05:04:55;29.10;;;15.65;;
85691;SDS011;76122;47.806;18.914;2024-01-30T05:07:21;32.23;;;14.20;;
85691;SDS011;76122;47.806;18.914;2024-01-30T05:09:46;29.33;;;14.63;;
85691;SDS011;76122;47.806;18.914;2024-01-30T05:12:12;29.87;;;13.80;;
85691;SDS011;76122;47.806;18.914;2024-01-30T05:14:37;29.77;;;14.65;;
85691;SDS011;76122;47.806;18.914;2024-01-30T05:17:03;27.80;;;13.60;;
85691;SDS011;76122;47.806;18.914;2024-01-30T05:19:28;32.90;;;13.97;;
85691;SDS011;76122;47.806;18.914;2024-01-30T05:21:54;27.57;;;14.33;;
85691;SDS011;76122;47.806;18.914;2024-01-30T05:24:19;28.80;;;14.15;;
85691;SDS011;76122;47.806;18.914;2024-01-30T05:26:44;27.10;;;14.93;;
85691;SDS011;76122;47.806;18.914;2024-01-30T05:29:10;28.97;;;14.03;;
85691;SDS011;76122;47.806;18.914;2024-01-30T05:31:35;30.27;;;14.67;;
85691;SDS011;76122;47.806;18.914;2024-01-30T05:34:01;34.77;;;16.07;;
85691;SDS011;76122;47.806;18.914;2024-01-30T05:36:26;31.40;;;14.90;;
85691;SDS011;76122;47.806;18.914;2024-01-30T05:38:52;33.17;;;14.75;;
85691;SDS011;76122;47.806;18.914;2024-01-30T05:41:17;41.20;;;18.00;;
85691;SDS011;76122;47.806;18.914;2024-01-30T05:43:43;50.20;;;21.00;;
85691;SDS011;76122;47.806;18.914;2024-01-30T05:46:08;51.03;;;21.80;;
85691;SDS011;76122;47.806;18.914;2024-01-30T05:48:34;79.80;;;29.92;;
85691;SDS011;76122;47.806;18.914;2024-01-30T05:51:00;73.50;;;29.08;;
85691;SDS011;76122;47.806;18.914;2024-01-30T05:53:26;68.40;;;29.80;;
85691;SDS011;76122;47.806;18.914;2024-01-30T05:55:51;66.28;;;27.62;;
85691;SDS011;76122;47.806;18.914;2024-01-30T05:58:17;59.13;;;25.43;;
85691;SDS011;76122;47.806;18.914;2024-01-30T06:00:42;55.73;;;24.73;;
85691;SDS011;76122;47.806;18.914;2024-01-30T06:03:08;67.57;;;26.30;;
85691;SDS011;76122;47.806;18.914;2024-01-30T06:05:33;55.67;;;24.50;;
85691;SDS011;76122;47.806;18.914;2024-01-30T06:07:58;67.63;;;29.30;;
85691;SDS011;76122;47.806;18.914;2024-01-30T06:10:24;72.55;;;30.58;;
85691;SDS011;76122;47.806;18.914;2024-01-30T06:12:49;63.50;;;27.87;;
85691;SDS011;76122;47.806;18.914;2024-01-30T06:15:14;48.83;;;21.83;;
85691;SDS011;76122;47.806;18.914;2024-01-30T06:17:40;44.07;;;19.97;;
85691;SDS011;76122;47.806;18.914;2024-01-30T06:20:05;45.73;;;20.77;;
85691;SDS011;76122;47.806;18.914;2024-01-30T06:22:31;44.13;;;21.80;;
85691;SDS011;76122;47.806;18.914;2024-01-30T06:24:57;47.23;;;23.30;;
85691;SDS011;76122;47.806;18.914;2024-01-30T06:27:22;45.20;;;23.33;;
85691;SDS011;76122;47.806;18.914;2024-01-30T06:29:47;42.57;;;21.90;;
85691;SDS011;76122;47.806;18.914;2024-01-30T06:32:13;35.92;;;19.75;;
85691;SDS011;76122;47.806;18.914;2024-01-30T06:34:38;38.47;;;19.60;;
85691;SDS011;76122;47.806;18.914;2024-01-30T06:37:05;37.73;;;19.40;;
85691;SDS011;76122;47.806;18.914;2024-01-30T06:39:30;35.13;;;19.08;;
85691;SDS011;76122;47.806;18.914;2024-01-30T06:41:55;34.03;;;18.80;;
85691;SDS011;76122;47.806;18.914;2024-01-30T06:44:21;40.00;;;17.63;;
85691;SDS011;76122;47.806;18.914;2024-01-30T06:46:46;34.43;;;18.10;;
85691;SDS011;76122;47.806;18.914;2024-01-30T06:49:12;36.77;;;19.33;;
85691;SDS011;76122;47.806;18.914;2024-01-30T06:51:37;36.35;;;19.10;;
85691;SDS011;76122;47.806;18.914;2024-01-30T06:54:03;41.53;;;20.43;;
85691;SDS011;76122;47.806;18.914;2024-01-30T06:56:29;46.27;;;22.80;;
85691;SDS011;76122;47.806;18.914;2024-01-30T06:58:55;45.15;;;21.50;;
85691;SDS011;76122;47.806;18.914;2024-01-30T07:01:20;41.77;;;21.33;;
85691;SDS011;76122;47.806;18.914;2024-01-30T07:03:46;42.90;;;21.17;;
85691;SDS011;76122;47.806;18.914;2024-01-30T07:06:11;43.95;;;22.27;;
85691;SDS011;76122;47.806;18.914;2024-01-30T07:08:37;39.80;;;21.53;;
85691;SDS011;76122;47.806;18.914;2024-01-30T07:11:05;39.70;;;20.33;;
85691;SDS011;76122;47.806;18.914;2024-01-30T07:13:31;39.90;;;19.70;;
85691;SDS011;76122;47.806;18.914;2024-01-30T07:15:56;35.42;;;18.83;;
85691;SDS011;76122;47.806;18.914;2024-01-30T07:18:22;34.83;;;19.83;;
85691;SDS011;76122;47.806;18.914;2024-01-30T07:20:47;30.07;;;17.63;;
85691;SDS011;76122;47.806;18.914;2024-01-30T07:23:14;28.42;;;16.77;;
85691;SDS011;76122;47.806;18.914;2024-01-30T07:25:41;33.20;;;16.87;;
85691;SDS011;76122;47.806;18.914;2024-01-30T07:28:10;30.93;;;16.80;;
85691;SDS011;76122;47.806;18.914;2024-01-30T07:30:37;31.77;;;15.68;;
85691;SDS011;76122;47.806;18.914;2024-01-30T07:33:02;28.67;;;15.83;;
85691;SDS011;76122;47.806;18.914;2024-01-30T07:35:28;29.37;;;14.55;;
85691;SDS011;76122;47.806;18.914;2024-01-30T07:37:53;31.03;;;16.00;;
85691;SDS011;76122;47.806;18.914;2024-01-30T07:40:19;32.13;;;16.17;;
85691;SDS011;76122;47.806;18.914;2024-01-30T07:42:44;30.83;;;17.10;;
85691;SDS011;76122;47.806;18.914;2024-01-30T07:45:09;36.57;;;19.00;;
85691;SDS011;76122;47.806;18.914;2024-01-30T07:47:35;41.90;;;19.13;;
85691;SDS011;76122;47.806;18.914;2024-01-30T07:50:00;47.25;;;21.62;;
85691;SDS011;76122;47.806;18.914;2024-01-30T07:52:26;46.97;;;23.17;;
85691;SDS011;76122;47.806;18.914;2024-01-30T07:54:51;50.23;;;25.80;;
85691;SDS011;76122;47.806;18.914;2024-01-30T07:57:17;47.60;;;25.20;;
85691;SDS011;76122;47.806;18.914;2024-01-30T07:59:43;56.37;;;29.70;;
85691;SDS011;76122;47.806;18.914;2024-01-30T08:02:09;61.65;;;29.83;;
85691;SDS011;76122;47.806;18.914;2024-01-30T08:04:35;67.13;;;32.90;;
85691;SDS011;76122;47.806;18.914;2024-01-30T08:07:00;63.83;;;32.28;;
85691;SDS011;76122;47.806;18.914;2024-01-30T08:09:26;64.43;;;32.43;;
85691;SDS011;76122;47.806;18.914;2024-01-30T08:11:51;59.83;;;32.60;;
85691;SDS011;76122;47.806;18.914;2024-01-30T08:14:16;66.30;;;32.83;;
85691;SDS011;76122;47.806;18.914;2024-01-30T08:16:42;61.13;;;30.10;;
85691;SDS011;76122;47.806;18.914;2024-01-30T08:19:07;58.83;;;29.80;;
85691;SDS011;76122;47.806;18.914;2024-01-30T08:21:33;58.27;;;28.83;;
85691;SDS011;76122;47.806;18.914;2024-01-30T08:24:02;55.50;;;27.85;;
85691;SDS011;76122;47.806;18.914;2024-01-30T08:26:28;55.03;;;27.33;;
85691;SDS011;76122;47.806;18.914;2024-01-30T08:28:54;49.03;;;27.30;;
85691;SDS011;76122;47.806;18.914;2024-01-30T08:31:19;51.77;;;26.93;;
85691;SDS011;76122;47.806;18.914;2024-01-30T08:33:45;52.03;;;25.17;;
85691;SDS011;76122;47.806;18.914;2024-01-30T08:36:10;46.17;;;23.10;;
85691;SDS011;76122;47.806;18.914;2024-01-30T08:38:35;43.63;;;21.27;;
85691;SDS011;76122;47.806;18.914;2024-01-30T08:41:01;42.70;;;20.40;;
85691;SDS011;76122;47.806;18.914;2024-01-30T08:43:26;37.67;;;19.20;;
85691;SDS011;76122;47.806;18.914;2024-01-30T08:45:51;35.93;;;18.00;;
85691;SDS011;76122;47.806;18.914;2024-01-30T08:48:17;41.10;;;18.20;;
85691;SDS011;76122;47.806;18.914;2024-01-30T08:50:42;41.63;;;18.83;;
85691;SDS011;76122;47.806;18.914;2024-01-30T08:53:08;41.50;;;19.50;;
85691;SDS011;76122;47.806;18.914;2024-01-30T08:55:33;36.13;;;17.40;;
85691;SDS011;76122;47.806;18.914;2024-01-30T08:57:59;34.53;;;17.93;;
85691;SDS011;76122;47.806;18.914;2024-01-30T09:00:24;39.37;;;17.80;;
85691;SDS011;76122;47.806;18.914;2024-01-30T09:02:50;41.90;;;18.60;;
85691;SDS011;76122;47.806;18.914;2024-01-30T09:05:15;41.28;;;18.85;;
85691;SDS011;76122;47.806;18.914;2024-01-30T09:07:40;38.23;;;18.67;;
85691;SDS011;76122;47.806;18.914;2024-01-30T09:10:06;40.30;;;18.50;;
85691;SDS011;76122;47.806;18.914;2024-01-30T09:12:32;37.83;;;18.27;;
85691;SDS011;76122;47.806;18.914;2024-01-30T09:14:57;41.58;;;18.75;;
85691;SDS011;76122;47.806;18.914;2024-01-30T09:17:22;44.33;;;18.27;;
85691;SDS011;76122;47.806;18.914;2024-01-30T09:19:48;37.83;;;18.20;;
85691;SDS011;76122;47.806;18.914;2024-01-30T09:22:13;42.33;;;20.00;;
85691;SDS011;76122;47.806;18.914;2024-01-30T09:24:39;34.53;;;17.30;;
85691;SDS011;76122;47.806;18.914;2024-01-30T09:27:05;42.47;;;19.08;;
85691;SDS011;76122;47.806;18.914;2024-01-30T09:29:31;40.65;;;21.20;;
85691;SDS011;76122;47.806;18.914;2024-01-30T09:31:59;42.60;;;20.47;;
85691;SDS011;76122;47.806;18.914;2024-01-30T09:34:25;43.90;;;21.98;;
85691;SDS011;76122;47.806;18.914;2024-01-30T09:36:50;42.60;;;22.10;;
85691;SDS011;76122;47.806;18.914;2024-01-30T09:39:15;42.30;;;21.30;;
85691;SDS011;76122;47.806;18.914;2024-01-30T09:41:45;36.85;;;17.40;;
85691;SDS011;76122;47.806;18.914;2024-01-30T09:44:15;34.85;;;16.25;;
85691;SDS011;76122;47.806;18.914;2024-01-30T09:46:41;31.70;;;15.45;;
85691;SDS011;76122;47.806;18.914;2024-01-30T09:49:07;30.67;;;16.10;;
85691;SDS011;76122;47.806;18.914;2024-01-30T09:51:33;30.75;;;15.65;;
85691;SDS011;76122;47.806;18.914;2024-01-30T09:53:59;32.92;;;15.07;;
85691;SDS011;76122;47.806;18.914;2024-01-30T09:56:25;30.67;;;14.57;;
85691;SDS011;76122;47.806;18.914;2024-01-30T09:58:50;31.37;;;15.63;;
85691;SDS011;76122;47.806;18.914;2024-01-30T10:01:15;27.80;;;13.70;;
85691;SDS011;76122;47.806;18.914;2024-01-30T10:03:43;30.50;;;14.77;;
85691;SDS011;76122;47.806;18.914;2024-01-30T10:06:09;32.47;;;14.33;;
85691;SDS011;76122;47.806;18.914;2024-01-30T10:08:35;26.83;;;13.30;;
85691;SDS011;76122;47.806;18.914;2024-01-30T10:11:00;28.37;;;13.57;;
85691;SDS011;76122;47.806;18.914;2024-01-30T10:13:26;28.25;;;13.93;;
85691;SDS011;76122;47.806;18.914;2024-01-30T10:15:52;24.87;;;13.10;;
85691;SDS011;76122;47.806;18.914;2024-01-30T10:18:18;26.05;;;13.20;;
85691;SDS011;76122;47.806;18.914;2024-01-30T10:20:43;26.17;;;13.10;;
85691;SDS011;76122;47.806;18.914;2024-01-30T10:23:09;24.27;;;12.60;;
85691;SDS011;76122;47.806;18.914;2024-01-30T10:25:34;27.87;;;13.90;;
85691;SDS011;76122;47.806;18.914;2024-01-30T10:28:01;26.25;;;12.95;;
85691;SDS011;76122;47.806;18.914;2024-01-30T10:30:26;29.20;;;13.70;;
85691;SDS011;76122;47.806;18.914;2024-01-30T10:32:52;24.00;;;12.80;;
85691;SDS011;76122;47.806;18.914;2024-01-30T10:35:18;22.47;;;12.63;;
85691;SDS011;76122;47.806;18.914;2024-01-30T10:37:44;23.43;;;12.87;;
85691;SDS011;76122;47.806;18.914;2024-01-30T10:40:12;23.62;;;12.43;;
85691;SDS011;76122;47.806;18.914;2024-01-30T10:42:40;26.23;;;14.55;;
85691;SDS011;76122;47.806;18.914;2024-01-30T10:45:08;25.15;;;13.25;;
85691;SDS011;76122;47.806;18.914;2024-01-30T10:47:35;26.50;;;13.77;;
85691;SDS011;76122;47.806;18.914;2024-01-30T10:50:03;27.93;;;14.20;;
85691;SDS011;76122;47.806;18.914;2024-01-30T10:52:29;27.25;;;14.60;;
85691;SDS011;76122;47.806;18.914;2024-01-30T10:54:56;29.17;;;13.73;;
85691;SDS011;76122;47.806;18.914;2024-01-30T10:57:25;28.83;;;15.00;;
85691;SDS011;76122;47.806;18.914;2024-01-30T11:00:01;26.45;;;13.85;;
85691;SDS011;76122;47.806;18.914;2024-01-30T11:02:35;24.05;;;13.15;;
85691;SDS011;76122;47.806;18.914;2024-01-30T11:05:05;24.90;;;13.45;;
85691;SDS011;76122;47.806;18.914;2024-01-30T11:07:30;27.73;;;14.07;;
85691;SDS011;76122;47.806;18.914;2024-01-30T11:12:28;40.92;;;18.75;;
85691;SDS011;76122;47.806;18.914;2024-01-30T11:20:21;32.58;;;16.85;;
85691;SDS011;76122;47.806;18.914;2024-01-30T11:22:49;35.50;;;17.43;;
85691;SDS011;76122;47.806;18.914;2024-01-30T11:25:16;36.35;;;18.62;;
85691;SDS011;76122;47.806;18.914;2024-01-30T11:27:44;32.45;;;17.52;;
85691;SDS011;76122;47.806;18.914;2024-01-30T11:30:11;29.27;;;15.63;;
85691;SDS011;76122;47.806;18.914;2024-01-30T11:32:46;29.33;;;15.25;;
85691;SDS011;76122;47.806;18.914;2024-01-30T11:35:12;29.53;;;15.27;;
85691;SDS011;76122;47.806;18.914;2024-01-30T11:37:37;26.83;;;15.07;;
85691;SDS011;76122;47.806;18.914;2024-01-30T11:40:04;28.15;;;14.70;;
85691;SDS011;76122;47.806;18.914;2024-01-30T11:42:30;25.03;;;14.53;;
85691;SDS011;76122;47.806;18.914;2024-01-30T11:44:55;28.77;;;14.60;;
85691;SDS011;76122;47.806;18.914;2024-01-30T11:47:22;27.37;;;13.87;;
85691;SDS011;76122;47.806;18.914;2024-01-30T11:49:47;26.85;;;14.95;;
85691;SDS011;76122;47.806;18.914;2024-01-30T11:52:13;28.53;;;14.03;;
85691;SDS011;76122;47.806;18.914;2024-01-30T11:54:39;27.25;;;13.90;;
85691;SDS011;76122;47.806;18.914;2024-01-30T11:57:05;27.30;;;14.75;;
85691;SDS011;76122;47.806;18.914;2024-01-30T11:59:30;24.70;;;13.87;;
85691;SDS011;76122;47.806;18.914;2024-01-30T12:01:55;24.90;;;14.45;;
85691;SDS011;76122;47.806;18.914;2024-01-30T12:04:21;23.87;;;13.60;;
85691;SDS011;76122;47.806;18.914;2024-01-30T12:06:50;28.30;;;14.53;;
85691;SDS011;76122;47.806;18.914;2024-01-30T12:09:16;23.87;;;13.43;;
85691;SDS011;76122;47.806;18.914;2024-01-30T12:11:48;23.40;;;13.00;;
85691;SDS011;76122;47.806;18.914;2024-01-30T12:14:17;29.42;;;14.40;;
85691;SDS011;76122;47.806;18.914;2024-01-30T12:16:42;33.57;;;17.97;;
85691;SDS011;76122;47.806;18.914;2024-01-30T12:19:08;50.83;;;17.63;;
85691;SDS011;76122;47.806;18.914;2024-01-30T12:21:33;30.07;;;14.83;;
85691;SDS011;76122;47.806;18.914;2024-01-30T12:23:59;24.45;;;13.38;;
85691;SDS011;76122;47.806;18.914;2024-01-30T12:26:25;24.85;;;13.57;;
85691;SDS011;76122;47.806;18.914;2024-01-30T12:28:53;23.57;;;13.90;;
85691;SDS011;76122;47.806;18.914;2024-01-30T12:31:25;24.63;;;14.02;;
85691;SDS011;76122;47.806;18.914;2024-01-30T12:33:52;23.77;;;12.45;;
85691;SDS011;76122;47.806;18.914;2024-01-30T12:36:17;19.87;;;10.80;;
85691;SDS011;76122;47.806;18.914;2024-01-30T12:38:43;21.20;;;10.82;;
85691;SDS011;76122;47.806;18.914;2024-01-30T12:41:08;19.27;;;11.30;;
85691;SDS011;76122;47.806;18.914;2024-01-30T12:43:34;23.53;;;11.37;;
85691;SDS011;76122;47.806;18.914;2024-01-30T12:45:59;23.53;;;12.57;;
85691;SDS011;76122;47.806;18.914;2024-01-30T12:48:26;22.37;;;11.52;;
85691;SDS011;76122;47.806;18.914;2024-01-30T12:50:53;23.05;;;12.45;;
85691;SDS011;76122;47.806;18.914;2024-01-30T12:53:19;21.73;;;11.67;;
85691;SDS011;76122;47.806;18.914;2024-01-30T12:55:44;21.67;;;12.03;;
85691;SDS011;76122;47.806;18.914;2024-01-30T12:58:10;21.57;;;12.50;;
85691;SDS011;76122;47.806;18.914;2024-01-30T13:00:35;29.20;;;15.07;;
85691;SDS011;76122;47.806;18.914;2024-01-30T13:03:01;26.47;;;14.40;;
85691;SDS011;76122;47.806;18.914;2024-01-30T13:05:26;24.30;;;13.80;;
85691;SDS011;76122;47.806;18.914;2024-01-30T13:07:52;30.00;;;13.82;;
85691;SDS011;76122;47.806;18.914;2024-01-30T13:10:19;25.88;;;13.88;;
85691;SDS011;76122;47.806;18.914;2024-01-30T13:12:45;21.63;;;12.87;;
85691;SDS011;76122;47.806;18.914;2024-01-30T13:15:10;21.12;;;11.63;;
85691;SDS011;76122;47.806;18.914;2024-01-30T13:17:36;22.17;;;11.47;;
85691;SDS011;76122;47.806;18.914;2024-01-30T13:20:02;20.80;;;12.15;;
85691;SDS011;76122;47.806;18.914;2024-01-30T13:22:29;20.23;;;11.73;;
85691;SDS011;76122;47.806;18.914;2024-01-30T13:24:54;18.92;;;11.07;;
85691;SDS011;76122;47.806;18.914;2024-01-30T13:27:20;20.47;;;11.37;;
85691;SDS011;76122;47.806;18.914;2024-01-30T13:29:45;25.07;;;11.70;;
85691;SDS011;76122;47.806;18.914;2024-01-30T13:32:11;21.80;;;11.20;;
85691;SDS011;76122;47.806;18.914;2024-01-30T13:34:36;21.87;;;11.23;;
85691;SDS011;76122;47.806;18.914;2024-01-30T13:37:01;22.45;;;11.23;;
85691;SDS011;76122;47.806;18.914;2024-01-30T13:39:27;24.50;;;13.35;;
85691;SDS011;76122;47.806;18.914;2024-01-30T13:41:54;22.47;;;12.57;;
85691;SDS011;76122;47.806;18.914;2024-01-30T13:44:19;21.52;;;12.07;;
85691;SDS011;76122;47.806;18.914;2024-01-30T13:46:45;22.62;;;12.73;;
85691;SDS011;76122;47.806;18.914;2024-01-30T13:49:11;21.70;;;11.40;;
85691;SDS011;76122;47.806;18.914;2024-01-30T13:51:36;21.33;;;11.93;;
85691;SDS011;76122;47.806;18.914;2024-01-30T13:54:02;24.40;;;13.43;;
85691;SDS011;76122;47.806;18.914;2024-01-30T13:56:27;23.50;;;11.15;;
85691;SDS011;76122;47.806;18.914;2024-01-30T13:58:53;22.15;;;11.35;;
85691;SDS011;76122;47.806;18.914;2024-01-30T14:01:20;19.83;;;10.57;;
85691;SDS011;76122;47.806;18.914;2024-01-30T14:03:46;21.53;;;11.90;;
85691;SDS011;76122;47.806;18.914;2024-01-30T14:06:11;23.20;;;11.57;;
85691;SDS011;76122;47.806;18.914;2024-01-30T14:08:37;33.28;;;13.38;;